Carter Lake, IA (51510)

22:40 CDT le 26 mai 2015 (GMT -0500)
CarterLake.org | | Change Station
CLOSE
Current Station
Stations météorologiques personnelles
Location: Carter Lake, IA
Altitude: 980 ft
Stations météo à proximité

Alt. 980 ft 41.29 °N, 95.92 °W | Updated 4 seconds ago

Mostly Cloudy
Nuageux
61.6 ° F
Paraît 61.6 ° F
N
1.0
Vent Variable Vent de Ouest
Gusts 2.3 mph

Aujourd'hui
Haut(e) -- | Bas -- ° F
--% Risque de précip.
Hier
Haut(e) -- | Bas -- ° F
Precip. -- pouce
5:56 AM 8:45 PM
Lune gibbeuse croissante, 63% visible
Pression 29.86 pouce
Visibilité 10.0 Miles terrestres
Nuages Peu 4800 ft
Peu 10000 ft
Nuageux 25000 ft
Point de rosée 52 ° F
Humidité 71%
Précipitations 0.20 pouce
Profondeur de la couche neigeuse Non disponible.
UV 0 sur 12
Pollen 5.90 sur 12
Qualité de l'air Non disponible.
Flu Activity Sporadic
METAR KOMA 270252Z 00000KT 10SM FEW048 FEW100 BKN250 16/13 A2987 RMK AO2 SLP112 T01610133 53008

More Conditions Fewer Conditions

Pression 29.86 pouce
Visibilité 10.0 Miles terrestres
Nuages Peu 4800 ft
Peu 10000 ft
Nuageux 25000 ft
Point de rosée 52 ° F
Humidité 71%
Précipitations 0.20 pouce
Profondeur de la couche neigeuse Non disponible.
UV 0 sur 12
Pollen 5.90 sur 12
Qualité de l'air Non disponible.
Flu Activity Sporadic
METAR KOMA 270252Z 00000KT 10SM FEW048 FEW100 BKN250 16/13 A2987 RMK AO2 SLP112 T01610133 53008

More Conditions Fewer Conditions

10-Day Weather Forecast

Almanac

Astronomie

May. 26, 2015 Lever Coucher
Temps réel
Crépuscule civil
Crépuscule nautique
Crépuscule astronomique
Lune
Durée de lumière visible
Longueur du jour
Tomorrow will be .
, % of the Moon is Illuminated

Extrêmes aujourd'hui

State Highs State Lows

Community

WunderPhotos

Upload Photos

1,824,600 Photos téléchargées !

WunderBlogs® & News

Nearby

Qualité de l'air

  Qualité de l'air Indice de la qualité de l'air Polluant
Not available.

Épaisseur de neige

Station Depth Altitude

Activité sismique

Ville Distance Mag. Time & Date
Minimum magnitude displayed is 2.5.

Températures des eaux côtières

Lieu Température

Stations

Stations météo à proximité

Emplacement de la station Température Refroidissement éolien Point de rosée Humidité Vent Precip. Alt. Mise à jour Type